Freshford, Canada
Current Conditions -  °F | °C
As of 6:00 PM on Wednesday 22 Oct 2014 (Local Time) from CYQD Reporting Station
Scattered Clouds Scattered Clouds  
Wind Chill: 50°   Ceiling: Unl
Heat Index: 50°   Visibility: 15mi
Dew Point: 45°   Wind: 5mph
Humidity: 82%   Direction: 360°N
Pressure: 29.62"   Gusts: NA
Location:  52.68°N, 101.23°W
Report Text: CYQD 222300Z 36004KT 15SM FEW040 FEW070 SCT210 10/07 A2962 RMKSC1AC1CI0 TR SC SLP038
Loading
Personal Weather Stations






























Interactive Weather Map
Tropical Storm Tracking
New forecast layout! Learn more

10-Day Weather Forecast

Advertisements
Track Severe Weather on mobile